createdAt,value
2019-03-03T00:00:39.992Z,35.63
2019-03-03T00:03:08.705Z,38.75
2019-03-03T00:05:37.425Z,36.77
2019-03-03T00:08:06.113Z,38.88
2019-03-03T00:10:36.400Z,38.35
2019-03-03T00:13:05.247Z,38.90
2019-03-03T00:15:34.000Z,37.85
2019-03-03T00:18:02.959Z,39.33
2019-03-03T00:20:31.554Z,39.98
2019-03-03T00:23:00.139Z,40.90
2019-03-03T00:25:31.792Z,41.40
2019-03-03T00:28:00.382Z,40.83
2019-03-03T00:30:29.098Z,39.92
2019-03-03T00:32:58.638Z,42.43
2019-03-03T00:35:27.224Z,41.00
2019-03-03T00:38:09.754Z,39.90
2019-03-03T00:43:26.280Z,39.23
2019-03-03T00:45:56.484Z,38.70
2019-03-03T00:48:27.697Z,39.35
2019-03-03T00:51:10.038Z,40.20
2019-03-03T00:53:58.034Z,39.85
2019-03-03T00:56:44.700Z,40.30
2019-03-03T00:59:31.231Z,37.88
2019-03-03T01:02:05.305Z,40.50
2019-03-03T01:04:51.975Z,40.95
2019-03-03T01:07:30.289Z,40.38
2019-03-03T01:10:00.742Z,40.23
2019-03-03T01:12:49.267Z,40.88
2019-03-03T01:15:19.693Z,42.40
2019-03-03T01:17:58.990Z,39.25
2019-03-03T01:20:32.244Z,41.55
2019-03-03T01:23:11.659Z,39.03
2019-03-03T01:25:40.226Z,41.18
2019-03-03T01:28:08.807Z,39.65
2019-03-03T01:30:37.731Z,40.65
2019-03-03T01:33:06.386Z,40.55
2019-03-03T01:35:35.507Z,39.85
2019-03-03T01:38:04.204Z,40.20
2019-03-03T01:40:32.798Z,41.92
2019-03-03T01:43:01.455Z,40.48
2019-03-03T01:45:30.118Z,41.75
2019-03-03T01:47:59.003Z,38.53
2019-03-03T01:50:27.585Z,39.03
2019-03-03T01:52:56.245Z,40.25
2019-03-03T01:55:24.806Z,39.63
2019-03-03T01:57:53.422Z,38.90
2019-03-03T02:00:24.789Z,40.17
2019-03-03T02:02:53.804Z,40.70
2019-03-03T02:05:22.620Z,41.15
2019-03-03T02:07:51.251Z,40.85
2019-03-03T02:10:24.948Z,40.00
2019-03-03T02:12:59.400Z,40.90
2019-03-03T02:15:28.389Z,39.38
2019-03-03T02:17:57.079Z,39.13
2019-03-03T02:20:25.741Z,39.05
2019-03-03T02:22:54.290Z,39.18
2019-03-03T02:25:23.119Z,40.73
2019-03-03T02:27:51.912Z,40.63
2019-03-03T02:30:22.167Z,40.63
2019-03-03T02:32:50.840Z,40.80
2019-03-03T02:35:19.472Z,40.05
2019-03-03T02:37:48.810Z,39.42
2019-03-03T02:40:20.404Z,39.13
2019-03-03T02:42:49.035Z,41.23
2019-03-03T02:45:18.173Z,39.88
2019-03-03T02:47:46.776Z,41.05
2019-03-03T02:50:16.190Z,40.55
2019-03-03T02:52:44.836Z,40.98
2019-03-03T02:55:17.672Z,41.23
2019-03-03T02:57:46.320Z,38.35
2019-03-03T03:00:22.461Z,39.10
2019-03-03T03:02:55.390Z,40.95
2019-03-03T03:05:30.538Z,41.30
2019-03-03T03:08:00.768Z,40.90
2019-03-03T03:10:31.295Z,41.68
2019-03-03T03:13:01.577Z,40.08
2019-03-03T03:15:31.897Z,41.00
2019-03-03T03:18:07.925Z,40.05
2019-03-03T03:20:38.194Z,40.75
2019-03-03T03:23:08.413Z,39.98
2019-03-03T03:25:41.573Z,40.85
2019-03-03T03:28:11.801Z,41.13
2019-03-03T03:30:56.876Z,40.08
2019-03-03T03:33:27.129Z,39.88
2019-03-03T03:36:06.286Z,42.53
2019-03-03T03:38:45.493Z,40.78
2019-03-03T03:41:30.840Z,40.20
2019-03-03T03:44:06.797Z,41.60
2019-03-03T03:46:51.949Z,41.10
2019-03-03T03:49:40.188Z,42.03
2019-03-03T03:52:28.426Z,41.50
2019-03-03T03:55:07.909Z,41.63
2019-03-03T03:57:40.769Z,42.73
2019-03-03T04:00:16.045Z,41.28
2019-03-03T04:03:05.996Z,43.10
2019-03-03T04:05:53.303Z,41.15
2019-03-03T04:08:23.532Z,41.68
2019-03-03T04:10:56.736Z,43.05
2019-03-03T04:13:36.784Z,42.35
2019-03-03T04:16:23.979Z,42.13
2019-03-03T04:18:54.237Z,41.05
2019-03-03T04:21:36.054Z,45.70
2019-03-03T04:24:22.546Z,42.08
2019-03-03T04:27:10.887Z,43.87
2019-03-03T04:29:45.087Z,44.25
2019-03-03T04:32:18.175Z,44.45
2019-03-03T04:34:50.900Z,43.92
2019-03-03T04:37:33.914Z,43.92
2019-03-03T04:40:10.120Z,45.10
2019-03-03T04:42:43.304Z,43.50
2019-03-03T04:45:16.373Z,43.13
2019-03-03T04:47:46.644Z,44.70
2019-03-03T04:50:22.630Z,43.80
2019-03-03T04:52:56.081Z,45.43
2019-03-03T04:55:29.267Z,45.85
2019-03-03T04:58:02.245Z,42.78
2019-03-03T05:00:35.236Z,43.20
2019-03-03T05:03:05.536Z,41.63
2019-03-03T05:05:35.842Z,45.10
2019-03-03T05:08:11.878Z,41.98
2019-03-03T05:10:44.853Z,43.13
2019-03-03T05:13:31.120Z,44.73
2019-03-03T05:16:17.941Z,46.60
2019-03-03T05:18:51.092Z,44.18
2019-03-03T05:21:19.682Z,47.13
2019-03-03T05:23:48.295Z,44.95
2019-03-03T05:26:16.870Z,44.65
2019-03-03T05:28:45.440Z,47.55
2019-03-03T05:31:14.147Z,46.13
2019-03-03T05:33:42.769Z,47.50
2019-03-03T05:36:11.344Z,45.60
2019-03-03T05:38:39.932Z,46.20
2019-03-03T05:41:08.535Z,46.92
2019-03-03T05:43:38.069Z,47.05
2019-03-03T05:46:11.688Z,49.73
2019-03-03T05:48:41.194Z,49.65
2019-03-03T05:51:09.805Z,49.27
2019-03-03T05:53:38.416Z,47.50
2019-03-03T05:56:07.997Z,49.15
2019-03-03T05:58:37.597Z,48.92
2019-03-03T06:01:06.317Z,49.48
2019-03-03T06:03:34.969Z,47.45
2019-03-03T06:06:03.580Z,48.20
2019-03-03T06:08:32.157Z,46.63
2019-03-03T06:11:00.740Z,49.55
2019-03-03T06:13:29.335Z,48.60
2019-03-03T06:15:57.985Z,48.17
2019-03-03T06:18:26.680Z,46.70
2019-03-03T06:20:56.201Z,47.48
2019-03-03T06:23:24.861Z,48.52
2019-03-03T06:25:53.841Z,45.58
2019-03-03T06:28:22.429Z,46.65
2019-03-03T06:30:50.995Z,45.28
2019-03-03T06:33:19.941Z,50.33
2019-03-03T06:35:48.523Z,46.18
2019-03-03T06:38:17.091Z,46.58
2019-03-03T06:40:45.676Z,47.80
2019-03-03T06:43:14.258Z,48.08
2019-03-03T06:45:42.938Z,47.08
2019-03-03T06:48:11.586Z,45.67
2019-03-03T06:50:40.191Z,46.95
2019-03-03T06:53:09.102Z,48.05
2019-03-03T06:55:37.686Z,47.27
2019-03-03T06:58:06.320Z,48.10
2019-03-03T07:00:35.051Z,46.90
2019-03-03T07:03:03.714Z,46.80
2019-03-03T07:05:32.377Z,45.43
2019-03-03T07:08:01.036Z,47.43
2019-03-03T07:10:29.668Z,47.38
2019-03-03T07:12:58.237Z,47.75
2019-03-03T07:15:27.126Z,46.83
2019-03-03T07:17:55.713Z,47.85
2019-03-03T07:20:24.404Z,47.17
2019-03-03T07:22:52.980Z,47.33
2019-03-03T07:25:22.595Z,45.85
2019-03-03T07:27:51.192Z,45.33
2019-03-03T07:30:19.870Z,45.43
2019-03-03T07:33:05.496Z,44.98
2019-03-03T07:35:34.262Z,45.70
2019-03-03T07:38:02.857Z,43.73
2019-03-03T07:40:33.411Z,44.48
2019-03-03T07:43:02.039Z,45.15
2019-03-03T07:45:30.717Z,45.00
2019-03-03T07:47:59.607Z,46.08
2019-03-03T07:50:28.670Z,47.35
2019-03-03T07:52:57.775Z,46.30
2019-03-03T07:55:26.349Z,45.00
2019-03-03T07:57:55.900Z,46.58
2019-03-03T08:00:24.506Z,45.10
2019-03-03T08:02:53.090Z,46.25
2019-03-03T08:05:21.703Z,45.83
2019-03-03T08:07:50.311Z,46.50
2019-03-03T08:10:18.879Z,44.90
2019-03-03T08:12:47.497Z,44.10
2019-03-03T08:15:18.586Z,44.42
2019-03-03T08:17:47.247Z,44.25
2019-03-03T08:20:16.492Z,42.70
2019-03-03T08:22:45.138Z,44.08
2019-03-03T08:25:15.921Z,41.92
2019-03-03T08:27:44.498Z,43.02
2019-03-03T08:30:17.799Z,41.65
2019-03-03T08:32:46.470Z,40.58
2019-03-03T08:35:23.845Z,40.20
2019-03-03T08:37:56.897Z,38.02
2019-03-03T08:40:28.098Z,38.65
2019-03-03T08:42:59.325Z,39.78
2019-03-03T08:45:32.522Z,39.65
2019-03-03T08:48:02.733Z,41.02
2019-03-03T08:50:35.700Z,39.05
2019-03-03T08:53:11.938Z,38.38
2019-03-03T08:55:58.439Z,38.05
2019-03-03T08:58:31.689Z,36.83
2019-03-03T09:01:05.046Z,38.45
2019-03-03T09:03:35.458Z,38.38
2019-03-03T09:06:14.576Z,40.30
2019-03-03T09:08:47.484Z,39.08
2019-03-03T09:11:17.704Z,37.25
2019-03-03T09:13:47.958Z,37.10
2019-03-03T09:16:34.091Z,37.95
2019-03-03T09:19:07.124Z,37.40
2019-03-03T09:21:53.403Z,38.78
2019-03-03T09:24:32.248Z,38.58
2019-03-03T09:27:05.248Z,37.83
2019-03-03T09:29:38.426Z,36.70
2019-03-03T09:32:14.902Z,37.17
2019-03-03T09:34:51.194Z,38.08
2019-03-03T09:37:24.135Z,37.08
2019-03-03T09:40:10.708Z,36.55
2019-03-03T09:42:41.055Z,35.58
2019-03-03T09:45:11.580Z,35.43
2019-03-03T09:47:51.023Z,32.05
2019-03-03T09:50:25.960Z,34.45
2019-03-03T09:52:57.270Z,33.23
2019-03-03T09:55:27.480Z,33.25
2019-03-03T09:58:00.479Z,33.58
2019-03-03T10:00:31.607Z,32.42
2019-03-03T10:03:18.110Z,31.87
2019-03-03T10:05:50.340Z,29.98
2019-03-03T10:08:32.678Z,31.85
2019-03-03T10:11:05.348Z,31.90
2019-03-03T10:13:42.109Z,30.12
2019-03-03T10:16:12.352Z,29.50
2019-03-03T10:18:45.337Z,31.70
2019-03-03T10:21:21.541Z,30.00
2019-03-03T10:23:51.768Z,29.77
2019-03-03T10:26:31.437Z,29.35
2019-03-03T10:29:01.679Z,29.55
2019-03-03T10:31:31.889Z,28.92
2019-03-03T10:34:18.263Z,28.15
2019-03-03T10:36:48.636Z,29.12
2019-03-03T10:39:18.899Z,29.02
2019-03-03T10:41:58.907Z,28.77
2019-03-03T10:44:45.120Z,28.87
2019-03-03T10:47:18.085Z,27.70
2019-03-03T10:49:55.251Z,27.85
2019-03-03T10:52:25.483Z,27.65
2019-03-03T10:55:13.743Z,29.02
2019-03-03T10:58:02.469Z,29.98
2019-03-03T11:00:35.854Z,28.27
2019-03-03T11:03:15.908Z,28.50
2019-03-03T11:06:02.419Z,28.80
2019-03-03T11:08:38.627Z,28.67
2019-03-03T11:11:27.094Z,27.20
2019-03-03T11:14:15.509Z,27.98
2019-03-03T11:16:48.894Z,28.75
2019-03-03T11:19:20.092Z,27.75
2019-03-03T11:21:53.245Z,29.15
2019-03-03T11:24:36.454Z,28.65
2019-03-03T11:27:07.372Z,28.02
2019-03-03T11:29:46.682Z,27.75
2019-03-03T11:32:21.209Z,28.42
2019-03-03T11:34:51.451Z,26.80
2019-03-03T11:37:24.018Z,26.48
2019-03-03T11:39:56.933Z,26.73
2019-03-03T11:42:33.094Z,27.30
2019-03-03T11:45:12.082Z,25.15
2019-03-03T11:47:43.143Z,25.62
2019-03-03T11:50:29.110Z,24.98
2019-03-03T11:53:05.764Z,24.63
2019-03-03T11:55:37.124Z,25.85
2019-03-03T11:58:11.408Z,26.82
2019-03-03T12:00:50.498Z,26.68
2019-03-03T12:03:23.601Z,27.48
2019-03-03T12:05:59.834Z,27.50
2019-03-03T12:08:32.544Z,26.45
2019-03-03T12:11:02.859Z,27.95
2019-03-03T12:13:33.181Z,29.48
2019-03-03T12:16:06.683Z,27.70
2019-03-03T12:18:42.539Z,27.58
2019-03-03T12:21:21.742Z,29.70
2019-03-03T12:23:54.701Z,30.55
2019-03-03T12:26:39.267Z,29.87
2019-03-03T12:29:18.250Z,31.10
2019-03-03T12:31:58.762Z,28.95
2019-03-03T12:34:29.036Z,27.70
2019-03-03T12:37:00.229Z,28.65
2019-03-03T12:39:33.686Z,30.00
2019-03-03T12:42:04.016Z,28.47
2019-03-03T12:44:38.794Z,28.25
2019-03-03T12:47:25.492Z,27.73
2019-03-03T12:49:56.696Z,27.05
2019-03-03T12:52:44.171Z,28.52
2019-03-03T12:55:17.300Z,29.50
2019-03-03T12:57:50.581Z,26.70
2019-03-03T13:00:23.700Z,27.52
2019-03-03T13:03:06.930Z,27.37
2019-03-03T13:05:53.464Z,27.62
2019-03-03T13:08:24.170Z,28.17
2019-03-03T13:11:06.308Z,27.07
2019-03-03T13:13:52.741Z,28.23
2019-03-03T13:16:39.416Z,27.77
2019-03-03T13:19:10.941Z,27.62
2019-03-03T13:21:44.110Z,27.45
2019-03-03T13:24:29.594Z,27.77
2019-03-03T13:27:05.809Z,26.80
2019-03-03T13:29:36.070Z,27.90
2019-03-03T13:32:09.282Z,27.62
2019-03-03T13:34:46.448Z,27.37
2019-03-03T13:37:37.095Z,29.70
2019-03-03T13:40:28.621Z,27.73
2019-03-03T13:43:00.042Z,26.90
2019-03-03T13:45:31.220Z,27.95
2019-03-03T13:48:00.048Z,27.82
2019-03-03T13:50:28.870Z,29.37
2019-03-03T13:52:57.564Z,29.80
2019-03-03T13:55:28.150Z,29.40
2019-03-03T13:57:56.913Z,27.98
2019-03-03T14:00:25.649Z,27.62
2019-03-03T14:02:56.196Z,27.50
2019-03-03T14:05:24.932Z,27.82
2019-03-03T14:07:53.629Z,26.90
2019-03-03T14:10:24.004Z,25.85
2019-03-03T14:12:53.016Z,26.90
2019-03-03T14:15:21.678Z,26.97
2019-03-03T14:17:50.387Z,26.20
2019-03-03T14:20:20.922Z,26.10
2019-03-03T14:22:52.391Z,27.48
2019-03-03T14:25:22.542Z,26.50
2019-03-03T14:27:51.122Z,27.35
2019-03-03T14:30:22.024Z,25.45
2019-03-03T14:32:50.635Z,25.52
2019-03-03T14:35:20.287Z,25.60
2019-03-03T14:37:49.032Z,26.20
2019-03-03T14:40:21.970Z,26.82
2019-03-03T14:42:50.693Z,26.70
2019-03-03T14:45:19.860Z,26.82
2019-03-03T14:47:51.997Z,27.50
2019-03-03T14:50:22.375Z,24.82
2019-03-03T14:52:54.491Z,26.90
2019-03-03T14:55:23.176Z,26.20
2019-03-03T14:57:51.844Z,25.27
2019-03-03T15:00:29.866Z,25.43
2019-03-03T15:03:01.422Z,25.68
2019-03-03T15:05:31.229Z,25.90
2019-03-03T15:08:00.902Z,24.57
2019-03-03T15:10:29.572Z,25.00
2019-03-03T15:12:58.455Z,25.25
2019-03-03T15:15:34.136Z,25.70
2019-03-03T15:18:04.352Z,24.80
2019-03-03T15:20:33.201Z,23.12
2019-03-03T15:23:01.907Z,23.02
2019-03-03T15:25:30.636Z,22.73
2019-03-03T15:28:00.354Z,23.00
2019-03-03T15:30:29.133Z,23.40
2019-03-03T15:32:58.089Z,22.60
2019-03-03T15:35:26.790Z,23.20
2019-03-03T15:37:55.799Z,23.85
2019-03-03T15:40:25.702Z,29.00
2019-03-03T15:42:56.242Z,22.48
2019-03-03T15:45:26.200Z,23.27
2019-03-03T15:47:54.861Z,23.95
2019-03-03T15:50:23.683Z,23.50
2019-03-03T15:52:52.341Z,24.47
2019-03-03T15:55:26.284Z,23.87
2019-03-03T15:57:54.909Z,23.55
2019-03-03T16:00:31.928Z,22.55
2019-03-03T16:03:00.637Z,21.33
2019-03-03T16:05:30.266Z,22.67
2019-03-03T16:07:59.010Z,21.45
2019-03-03T16:10:28.413Z,21.73
2019-03-03T16:12:57.104Z,20.57
2019-03-03T16:15:25.795Z,20.00
2019-03-03T16:17:54.422Z,20.43
2019-03-03T16:20:24.642Z,20.48
2019-03-03T16:22:53.432Z,19.98
2019-03-03T16:25:32.444Z,20.12
2019-03-03T16:28:02.148Z,19.32
2019-03-03T16:30:30.735Z,18.75
2019-03-03T16:32:59.735Z,18.90
2019-03-03T16:35:28.377Z,19.02
2019-03-03T16:37:56.969Z,19.52
2019-03-03T16:40:39.073Z,17.98
2019-03-03T16:42:59.832Z,18.65
2019-03-03T16:45:30.521Z,18.77
2019-03-03T16:48:01.843Z,19.35
2019-03-03T16:50:35.339Z,19.20
2019-03-03T16:53:04.571Z,20.45
2019-03-03T16:55:33.216Z,18.73
2019-03-03T16:58:01.835Z,20.17
2019-03-03T17:00:30.487Z,19.35
2019-03-03T17:02:59.112Z,20.45
2019-03-03T17:05:31.409Z,21.90
2019-03-03T17:08:01.016Z,23.22
2019-03-03T17:10:29.657Z,23.25
2019-03-03T17:12:59.258Z,21.55
2019-03-03T17:15:29.182Z,21.95
2019-03-03T17:17:58.104Z,21.30
2019-03-03T17:20:27.348Z,21.90
2019-03-03T17:22:56.572Z,22.52
2019-03-03T17:25:29.621Z,22.65
2019-03-03T17:27:59.014Z,22.50
2019-03-03T17:30:28.306Z,21.30
2019-03-03T17:32:56.997Z,22.82
2019-03-03T17:35:25.754Z,22.50
2019-03-03T17:37:56.499Z,23.07
2019-03-03T17:40:26.032Z,21.37
2019-03-03T17:42:54.779Z,21.42
2019-03-03T17:45:26.707Z,21.07
2019-03-03T17:47:55.426Z,20.02
2019-03-03T17:50:27.432Z,20.92
2019-03-03T17:53:04.263Z,20.40
2019-03-03T17:55:33.066Z,20.23
2019-03-03T17:58:01.751Z,21.60
2019-03-03T18:00:32.172Z,19.98
2019-03-03T18:03:00.881Z,21.97
2019-03-03T18:05:29.778Z,19.90
2019-03-03T18:07:58.512Z,20.50
2019-03-03T18:10:28.126Z,19.17
2019-03-03T18:12:56.851Z,18.65
2019-03-03T18:15:26.499Z,18.87
2019-03-03T18:17:55.226Z,20.48
2019-03-03T18:20:25.300Z,19.20
2019-03-03T18:22:54.280Z,19.85
2019-03-03T18:25:23.025Z,18.92
2019-03-03T18:27:52.129Z,19.02
2019-03-03T18:30:23.139Z,19.20
2019-03-03T18:32:53.652Z,19.95
2019-03-03T18:35:22.412Z,20.92
2019-03-03T18:37:51.137Z,21.73
2019-03-03T18:40:23.976Z,21.50
2019-03-03T18:42:53.019Z,23.95
2019-03-03T18:45:22.918Z,21.35
2019-03-03T18:48:03.632Z,22.52
2019-03-03T18:50:32.308Z,21.20
2019-03-03T18:53:00.960Z,21.50
2019-03-03T18:55:31.468Z,20.95
2019-03-03T18:58:06.241Z,22.27
2019-03-03T19:00:41.725Z,21.48
2019-03-03T19:03:34.286Z,20.82
2019-03-03T19:06:19.962Z,21.70
2019-03-03T19:08:49.785Z,24.10
2019-03-03T19:11:20.275Z,22.87
2019-03-03T19:13:48.985Z,23.15
2019-03-03T19:16:18.653Z,23.57
2019-03-03T19:18:47.352Z,24.70
2019-03-03T19:21:15.996Z,23.67
2019-03-03T19:23:44.609Z,23.00
2019-03-03T19:26:13.236Z,23.00
2019-03-03T19:28:42.817Z,21.65
2019-03-03T19:31:11.813Z,24.40
2019-03-03T19:33:46.551Z,20.40
2019-03-03T19:36:15.308Z,21.73
2019-03-03T19:38:50.189Z,23.75
2019-03-03T19:41:24.804Z,22.00
2019-03-03T19:43:53.422Z,25.97
2019-03-03T19:46:24.162Z,24.40
2019-03-03T19:48:56.871Z,21.65
2019-03-03T19:51:26.882Z,23.38
2019-03-03T19:53:56.517Z,22.82
2019-03-03T19:56:25.309Z,22.13
2019-03-03T19:58:57.415Z,20.57
2019-03-03T20:01:27.145Z,20.65
2019-03-03T20:03:57.402Z,19.67
2019-03-03T20:06:26.130Z,19.07
2019-03-03T20:08:54.764Z,21.42
2019-03-03T20:11:23.570Z,21.55
2019-03-03T20:13:54.648Z,20.52
2019-03-03T20:16:35.411Z,19.32
2019-03-03T20:19:04.261Z,20.15
2019-03-03T20:21:33.032Z,20.95
2019-03-03T20:24:01.673Z,19.15
2019-03-03T20:26:30.267Z,20.25
2019-03-03T20:28:58.925Z,20.23
2019-03-03T20:31:29.488Z,18.92
2019-03-03T20:33:58.734Z,19.85
2019-03-03T20:36:29.493Z,17.32
2019-03-03T20:38:58.065Z,19.55
2019-03-03T20:41:26.923Z,20.00
2019-03-03T20:43:55.595Z,20.45
2019-03-03T20:46:24.259Z,18.90
2019-03-03T20:48:52.896Z,19.48
2019-03-03T20:51:21.571Z,18.62
2019-03-03T20:53:50.901Z,19.52
2019-03-03T20:56:19.599Z,19.15
2019-03-03T20:58:48.365Z,20.05
2019-03-03T21:01:17.113Z,19.27
2019-03-03T21:03:46.984Z,20.45
2019-03-03T21:06:17.755Z,20.40
2019-03-03T21:08:46.429Z,19.48
2019-03-03T21:11:17.935Z,18.77
2019-03-03T21:13:47.539Z,20.90
2019-03-03T21:16:20.369Z,20.32
2019-03-03T21:18:49.062Z,19.65
2019-03-03T21:21:17.591Z,19.92
2019-03-03T21:23:46.173Z,19.60
2019-03-03T21:26:14.975Z,19.35
2019-03-03T21:28:44.516Z,19.82
2019-03-03T21:31:13.662Z,20.08
2019-03-03T21:33:42.263Z,19.35
2019-03-03T21:36:10.939Z,18.92
2019-03-03T21:38:39.531Z,18.60
2019-03-03T21:41:08.246Z,18.50
2019-03-03T21:43:37.756Z,19.32
2019-03-03T21:46:07.416Z,19.42
2019-03-03T21:48:36.167Z,19.77
2019-03-03T21:51:05.840Z,18.02
2019-03-03T21:53:34.425Z,18.65
2019-03-03T21:56:03.175Z,19.95
2019-03-03T21:58:32.111Z,18.32
2019-03-03T22:01:01.605Z,19.37
2019-03-03T22:03:30.554Z,20.10
2019-03-03T22:05:59.164Z,21.20
2019-03-03T22:08:27.761Z,21.65
2019-03-03T22:10:56.425Z,22.10
2019-03-03T22:13:25.008Z,24.00
2019-03-03T22:15:53.623Z,24.90
2019-03-03T22:18:22.219Z,26.60
2019-03-03T22:20:51.217Z,26.65
2019-03-03T22:23:19.903Z,26.57
2019-03-03T22:25:51.341Z,25.75
2019-03-03T22:28:20.539Z,26.02
2019-03-03T22:30:49.158Z,24.40
2019-03-03T22:33:18.205Z,25.10
2019-03-03T22:35:46.780Z,23.38
2019-03-03T22:38:15.371Z,21.57
2019-03-03T22:40:43.999Z,21.45
2019-03-03T22:43:12.585Z,20.80
2019-03-03T22:45:42.192Z,21.23
2019-03-03T22:48:11.929Z,21.50
2019-03-03T22:50:41.085Z,22.52
2019-03-03T22:53:11.610Z,22.15
2019-03-03T22:55:40.582Z,21.77
2019-03-03T22:58:09.277Z,22.70
2019-03-03T23:00:45.210Z,20.95
2019-03-03T23:03:16.927Z,20.97
2019-03-03T23:05:52.682Z,20.30
2019-03-03T23:08:30.541Z,20.97
2019-03-03T23:11:08.183Z,21.50
2019-03-03T23:13:43.045Z,21.85
2019-03-03T23:16:17.631Z,21.33
2019-03-03T23:19:15.878Z,22.42
2019-03-03T23:22:10.145Z,22.58
2019-03-03T23:24:59.348Z,22.40
2019-03-03T23:30:37.932Z,22.27
2019-03-03T23:33:19.791Z,23.00
2019-03-03T23:35:50.362Z,23.47
2019-03-03T23:38:19.127Z,24.25
2019-03-03T23:40:52.033Z,25.00
2019-03-03T23:43:20.616Z,23.22
2019-03-03T23:45:51.577Z,24.05
2019-03-03T23:48:21.116Z,22.60
2019-03-03T23:51:26.364Z,22.45
2019-03-03T23:54:04.784Z,22.85
2019-03-03T23:56:33.384Z,21.20
2019-03-03T23:59:02.035Z,19.75
